New Orleans, Louisiana
Traffic Map
Current Weather Conditions
New Orleans, Louisiana
Broken Clouds
Broken Clouds
32°
Feels Like: 33°
Wind Chill: 32° Ceiling: 5000
Heat Index: 33° Visibility: 10mi
Dew Point: 19° Wind: 6mph
Humidity: 46% Direction: 160° (SSE)
Pressure: 30.01in Gusts: 0mph
Raw Report DataK7N0 292055Z AUTO 16005KT 10SM BKN050 BKN065 BKN075 32/19 A3001 RMK AO1 57020
Traffic Incident Summary
Active as of:
Severity:
Category:
InformationThere was an issue retrieving the traffic information for this location. Please try a different location or try again shortly.
Advertisements
Track Severe Weather on mobile